Terminal Aerodrome Forecast
Issued by NWS North Platte, NE

Home | Current Version | Previous Version | Text Only | Print | Product List | Glossary On
Versions: 1 2 3 4 5 6 7 8 9 10 11 12 13 14 15 16 17 18 19 20 21 22 23 24 25 26 27 28
000
FTUS43 KLBF 252300
TAFVTN
TAF
KVTN 252321Z 2600/2624 32005KT P6SM BKN050 OVC090
      TEMPO 2600/2602 P6SM -RA
     FM260600 32004KT 5SM BR OVC015
     FM260900 32003KT 3SM BR SCT009 OVC015
     FM261600 35006KT P6SM OVC025
     FM261800 35008KT P6SM OVC040=

USA.gov is the U.S. government's official web portal to all federal, state and local government web resources and services.